Alexander, Maine
Current Conditions -  °F | °C
As of 12:55 PM on Saturday 25 Oct 2014 (Local Time) from KBHB Reporting Station
Clear Clear  
Wind Chill: 13°   Ceiling: Unl
Heat Index: 13°   Visibility: 10mi
Dew Point:   Wind: 3mph
Humidity: 47%   Direction: 330°NNW
Pressure: 29.59"   Gusts: NA
Location:  45.0659°N, 67.4987°W
Report Text: KBHB 251655Z AUTO 33003KT 10SM CLR 13/02 A2959 RMK AO1
Loading
Personal Weather Stations






























Interactive Weather Map
Tropical Storm Tracking
New forecast layout! Learn more

10-Day Weather Forecast

Advertisements
Track Severe Weather on mobile